Time;durP1;ratioP1;P1;durP2;ratioP2;P2;SDS_P1;SDS_P2;PMS_P1;PMS_P2;Temp;Humidity;BMP_temperature;BMP_pressure;BME280_temperature;BME280_humidity;BME280_pressure;Samples;Min_cycle;Max_cycle;Signal;HPM_P1;HPM_P2
2021/03/28 00:00:20;;;;;;;12.60;3.15;;;7.60;67.10;;;;;;5032881;28;20477;-77
2021/03/28 00:02:57;;;;;;;11.30;3.10;;;7.70;67.20;;;;;;5015449;28;20546;-77
2021/03/28 00:05:23;;;;;;;11.77;2.92;;;7.70;66.90;;;;;;5070346;28;20033;-77
2021/03/28 00:08:00;;;;;;;12.48;2.70;;;7.70;66.90;;;;;;5073423;28;20028;-77
2021/03/28 00:10:29;;;;;;;8.45;2.50;;;7.80;67.00;;;;;;5074652;28;20016;-77
2021/03/28 00:13:13;;;;;;;10.18;2.67;;;7.70;67.10;;;;;;5074204;28;20012;-77
2021/03/28 00:15:43;;;;;;;12.40;2.92;;;7.80;67.20;;;;;;5034671;28;20037;-77
2021/03/28 00:18:24;;;;;;;8.27;2.80;;;7.80;67.20;;;;;;5072741;28;20377;-77
2021/03/28 00:21:04;;;;;;;16.67;3.03;;;7.80;67.50;;;;;;5069642;28;20036;-77
2021/03/28 00:23:31;;;;;;;13.05;3.20;;;7.80;67.40;;;;;;5060974;28;20085;-77
2021/03/28 00:26:18;;;;;;;14.90;2.83;;;7.80;67.40;;;;;;5074328;28;20037;-77
2021/03/28 00:28:52;;;;;;;13.20;3.03;;;7.80;67.50;;;;;;5072972;28;20056;-77
2021/03/28 00:31:24;;;;;;;12.40;2.85;;;7.80;67.60;;;;;;5074067;28;20021;-77
2021/03/28 00:34:27;;;;;;;11.90;2.90;;;7.80;67.60;;;;;;5072641;28;20041;-77
2021/03/28 00:37:10;;;;;;;9.63;2.40;;;7.80;67.70;;;;;;5074158;28;20016;-77
2021/03/28 00:39:35;;;;;;;16.67;2.97;;;7.80;67.70;;;;;;5066465;28;20021;-77
2021/03/28 00:42:27;;;;;;;10.15;2.92;;;7.80;67.90;;;;;;5053592;28;20040;-77
2021/03/28 00:44:58;;;;;;;12.75;2.70;;;7.80;68.00;;;;;;5064138;28;20108;-77
2021/03/28 00:47:37;;;;;;;12.85;2.95;;;7.90;68.00;;;;;;5053854;28;20032;-77
2021/03/28 00:50:41;;;;;;;10.75;2.72;;;7.90;68.00;;;;;;5062219;28;20029;-77
2021/03/28 00:53:28;;;;;;;12.02;2.92;;;7.90;68.20;;;;;;5047802;28;20048;-77
2021/03/28 00:56:41;;;;;;;;;;;;;;;;;;;;;
2021/03/28 00:59:19;;;;;;;11.60;2.72;;;7.90;68.40;;;;;;5033412;28;20025;-77
2021/03/28 01:02:10;;;;;;;10.63;2.70;;;7.90;68.40;;;;;;5048638;28;20029;-77
2021/03/28 01:05:12;;;;;;;12.63;2.90;;;7.90;68.40;;;;;;5073528;28;20440;-77
2021/03/28 01:08:07;;;;;;;11.35;3.05;;;7.90;68.50;;;;;;5073571;28;20055;-77
2021/03/28 01:10:47;;;;;;;8.52;2.08;;;7.90;68.50;;;;;;5043337;28;20505;-77
2021/03/28 01:13:50;;;;;;;12.73;2.40;;;7.90;68.60;;;;;;5033400;28;20030;-77
2021/03/28 01:16:34;;;;;;;13.15;2.88;;;7.80;68.80;;;;;;5070306;28;20096;-77
2021/03/28 01:19:38;;;;;;;10.05;2.30;;;7.80;68.80;;;;;;5065177;28;20390;-77
2021/03/28 01:22:16;;;;;;;8.18;2.50;;;7.80;69.10;;;;;;5051902;28;20025;-77
2021/03/28 01:24:54;;;;;;;11.75;2.65;;;7.70;69.10;;;;;;5066313;28;20112;-77
2021/03/28 01:27:27;;;;;;;11.52;2.30;;;7.70;69.30;;;;;;5060853;28;20040;-77
2021/03/28 01:29:58;;;;;;;14.90;2.97;;;7.70;69.40;;;;;;5066507;28;20389;-78
2021/03/28 01:32:43;;;;;;;12.38;2.20;;;7.70;69.60;;;;;;5071789;28;20174;-77
2021/03/28 01:35:14;;;;;;;9.40;2.13;;;7.60;69.70;;;;;;5067316;28;20017;-77
2021/03/28 01:38:01;;;;;;;15.18;2.80;;;7.60;69.80;;;;;;5073098;28;20024;-77
2021/03/28 01:40:49;;;;;;;12.73;2.70;;;7.50;70.00;;;;;;5066278;28;20047;-77
2021/03/28 01:43:33;;;;;;;8.15;2.15;;;7.50;70.20;;;;;;5068633;28;20116;-77
2021/03/28 01:46:32;;;;;;;14.02;2.80;;;7.50;70.30;;;;;;5073240;28;20058;-77
2021/03/28 01:49:21;;;;;;;;;;;7.50;70.50;;;;;;5073046;28;20033;-77
2021/03/28 01:52:15;;;;;;;9.20;2.20;;;7.40;70.40;;;;;;5053352;28;19999;-77
2021/03/28 01:54:59;;;;;;;8.98;2.80;;;7.40;70.60;;;;;;5059151;28;20120;-77
2021/03/28 01:58:00;;;;;;;10.75;2.85;;;7.40;70.70;;;;;;5051760;28;20032;-77
2021/03/28 02:01:03;;;;;;;9.10;2.42;;;7.40;71.00;;;;;;5071249;28;20027;-77
2021/03/28 02:03:44;;;;;;;9.93;2.22;;;7.30;71.00;;;;;;5073026;28;20047;-77
2021/03/28 02:06:34;;;;;;;9.75;2.92;;;7.30;71.00;;;;;;5072188;28;20445;-77
2021/03/28 02:09:42;;;;;;;13.85;2.67;;;7.30;71.20;;;;;;5066575;28;20021;-77
2021/03/28 02:12:17;;;;;;;10.38;2.33;;;7.30;71.40;;;;;;5051672;28;20032;-77
2021/03/28 02:15:37;;;;;;;8.52;2.80;;;7.30;71.50;;;;;;5053228;28;20033;-77
2021/03/28 02:18:26;;;;;;;11.75;2.90;;;7.30;71.60;;;;;;5052867;28;20363;-77
2021/03/28 02:21:05;;;;;;;9.95;2.80;;;7.20;71.60;;;;;;5051498;28;20493;-77
2021/03/28 02:23:49;;;;;;;6.97;2.92;;;7.20;71.70;;;;;;5052642;28;20108;-77
2021/03/28 02:26:28;;;;;;;16.52;3.70;;;7.20;72.00;;;;;;5053028;28;20036;-77
2021/03/28 02:29:06;;;;;;;;;;;7.20;72.10;;;;;;5073481;28;20032;-77
2021/03/28 02:31:58;;;;;;;9.77;3.38;;;7.20;72.00;;;;;;5073235;28;20252;-76
2021/03/28 02:34:38;;;;;;;11.07;3.20;;;7.10;72.40;;;;;;5025497;28;20048;-77
2021/03/28 02:37:27;;;;;;;7.28;3.03;;;7.10;72.30;;;;;;5071581;28;20358;-77
2021/03/28 02:39:57;;;;;;;7.85;3.45;;;7.10;72.60;;;;;;5068431;28;20032;-77
2021/03/28 02:42:54;;;;;;;10.88;3.10;;;7.00;72.50;;;;;;5062880;28;20123;-77
2021/03/28 02:45:23;;;;;;;14.07;3.75;;;7.00;72.80;;;;;;5052715;28;20036;-77
2021/03/28 02:48:33;;;;;;;15.45;3.17;;;7.00;72.80;;;;;;5066076;28;20025;-77
2021/03/28 02:51:33;;;;;;;10.27;2.60;;;7.10;73.10;;;;;;5071981;28;20035;-77
2021/03/28 02:54:35;;;;;;;9.10;2.30;;;7.10;73.20;;;;;;5059375;28;20118;-77
2021/03/28 02:57:33;;;;;;;9.25;2.30;;;7.10;73.20;;;;;;5076106;28;20428;-77
2021/03/28 03:00:14;;;;;;;9.47;2.30;;;7.10;73.10;;;;;;5075981;28;20028;-77
2021/03/28 03:03:20;;;;;;;7.05;2.13;;;7.10;73.30;;;;;;5076052;28;20267;-77
2021/03/28 03:06:26;;;;;;;7.57;2.30;;;7.10;73.40;;;;;;5034696;28;20422;-77
2021/03/28 03:09:08;;;;;;;7.55;2.10;;;7.10;73.40;;;;;;5035598;28;20060;-77
2021/03/28 03:12:06;;;;;;;8.57;2.50;;;7.10;73.40;;;;;;5035754;28;20124;-77
2021/03/28 03:14:52;;;;;;;8.65;2.17;;;7.10;73.50;;;;;;5035576;28;20025;-77
2021/03/28 03:17:53;;;;;;;10.80;2.15;;;7.10;73.40;;;;;;5035775;28;20033;-77
2021/03/28 03:20:23;;;;;;;9.05;2.10;;;7.10;73.60;;;;;;5056128;28;20021;-77
2021/03/28 03:23:00;;;;;;;8.68;1.90;;;7.00;73.60;;;;;;5054235;28;20078;-77
2021/03/28 03:26:05;;;;;;;11.20;2.78;;;7.00;73.70;;;;;;5055500;28;20028;-77
2021/03/28 03:28:46;;;;;;;11.23;2.47;;;7.10;73.90;;;;;;5054128;28;20111;-77
2021/03/28 03:31:52;;;;;;;8.50;2.15;;;7.00;73.80;;;;;;5055430;28;20029;-77
2021/03/28 03:35:10;;;;;;;8.20;1.90;;;7.10;73.80;;;;;;5072064;28;20052;-77
2021/03/28 03:38:19;;;;;;;9.02;1.92;;;7.10;73.90;;;;;;5073942;28;20020;-77
2021/03/28 03:40:51;;;;;;;12.05;2.20;;;7.10;73.90;;;;;;5066060;28;20021;-77
2021/03/28 03:43:38;;;;;;;6.80;1.83;;;7.10;73.80;;;;;;5053797;28;20028;-77
2021/03/28 03:46:06;;;;;;;7.18;1.92;;;7.10;73.80;;;;;;5055101;28;20025;-77
2021/03/28 03:49:12;;;;;;;9.48;2.20;;;7.20;73.80;;;;;;5055023;28;20033;-77
2021/03/28 03:52:05;;;;;;;6.53;1.67;;;7.20;74.00;;;;;;5054710;28;20025;-77
2021/03/28 03:55:11;;;;;;;6.47;2.00;;;7.20;74.00;;;;;;5071136;28;20035;-77
2021/03/28 03:57:46;;;;;;;4.38;1.45;;;7.20;74.00;;;;;;5063467;28;20028;-77
2021/03/28 04:00:20;;;;;;;9.80;2.15;;;7.20;74.00;;;;;;5066413;28;20453;-77
2021/03/28 04:02:50;;;;;;;10.15;1.95;;;7.20;74.20;;;;;;5073184;28;20060;-77
2021/03/28 04:05:34;;;;;;;9.18;1.90;;;7.20;74.30;;;;;;5065275;28;20021;-77
2021/03/28 04:08:39;;;;;;;11.15;2.30;;;7.20;74.30;;;;;;5053645;28;20017;-77
2021/03/28 04:11:32;;;;;;;9.63;1.70;;;7.30;74.40;;;;;;4993118;28;20113;-77
2021/03/28 04:14:30;;;;;;;6.13;1.67;;;7.30;74.40;;;;;;5002263;28;20026;-77
2021/03/28 04:17:31;;;;;;;8.50;2.03;;;7.30;74.50;;;;;;5042098;28;20127;-77
2021/03/28 04:20:17;;;;;;;10.27;1.88;;;7.30;74.60;;;;;;5074627;28;20028;-77
2021/03/28 04:23:32;;;;;;;8.82;1.90;;;7.30;74.60;;;;;;5074385;28;20025;-77
2021/03/28 04:26:28;;;;;;;5.65;1.77;;;7.20;74.70;;;;;;5067288;28;20032;-77
2021/03/28 04:29:46;;;;;;;13.55;1.80;;;7.20;74.70;;;;;;5073064;28;20033;-77
2021/03/28 04:32:24;;;;;;;9.10;1.67;;;7.20;74.70;;;;;;5048944;28;20072;-77
2021/03/28 04:35:22;;;;;;;4.72;1.58;;;7.20;74.80;;;;;;5054048;28;20494;-77
2021/03/28 04:38:21;;;;;;;7.20;1.90;;;7.20;75.00;;;;;;5057876;28;20024;-77
2021/03/28 04:41:22;;;;;;;11.35;1.83;;;7.10;75.00;;;;;;5073415;28;20120;-77
2021/03/28 04:44:01;;;;;;;7.53;1.90;;;7.20;75.10;;;;;;5053943;28;20028;-77
2021/03/28 04:46:51;;;;;;;7.43;1.60;;;7.20;75.10;;;;;;5069686;28;20025;-77
2021/03/28 04:49:42;;;;;;;7.82;1.33;;;7.20;75.10;;;;;;5073509;28;20112;-77
2021/03/28 04:52:29;;;;;;;6.50;1.45;;;7.20;75.30;;;;;;5072555;28;20024;-77
2021/03/28 04:55:16;;;;;;;8.38;1.75;;;7.30;75.20;;;;;;5072764;28;20100;-77
2021/03/28 04:57:59;;;;;;;6.53;1.73;;;7.30;75.30;;;;;;5073293;28;20477;-77
2021/03/28 05:01:13;;;;;;;6.18;1.58;;;7.30;75.20;;;;;;5073273;28;20047;-77
2021/03/28 05:03:42;;;;;;;7.43;1.85;;;7.40;75.20;;;;;;5067673;28;20049;-77
2021/03/28 05:07:02;;;;;;;7.15;1.48;;;7.40;75.00;;;;;;5067579;28;20496;-77
2021/03/28 05:09:49;;;;;;;6.38;1.60;;;7.50;75.20;;;;;;5061216;28;20486;-77
2021/03/28 05:12:46;;;;;;;8.85;1.50;;;7.50;75.20;;;;;;5072007;28;20491;-77
2021/03/28 05:15:44;;;;;;;7.57;1.98;;;7.50;75.10;;;;;;5071284;28;20040;-77
2021/03/28 05:18:53;;;;;;;6.55;1.60;;;7.60;75.10;;;;;;5073328;28;20025;-77
2021/03/28 05:25:03;;;;;;;;;;;;;;;;;;;;;
2021/03/28 05:27:35;;;;;;;8.48;1.65;;;7.60;75.00;;;;;;5073376;28;20036;-77
2021/03/28 05:30:38;;;;;;;7.47;1.80;;;7.60;75.00;;;;;;5072840;28;20550;-77
2021/03/28 05:33:24;;;;;;;6.13;1.50;;;7.70;75.10;;;;;;5072850;28;20470;-77
2021/03/28 05:36:14;;;;;;;9.02;2.03;;;7.80;75.10;;;;;;5072296;28;20021;-77
2021/03/28 05:39:26;;;;;;;7.50;1.63;;;7.70;75.10;;;;;;5049157;28;20061;-77
2021/03/28 05:42:32;;;;;;;9.35;2.10;;;7.80;75.20;;;;;;5058824;28;20041;-77
2021/03/28 05:45:37;;;;;;;7.25;2.63;;;7.80;75.20;;;;;;5060093;28;20067;-77
2021/03/28 05:48:47;;;;;;;9.32;2.53;;;7.90;75.30;;;;;;5066747;28;20029;-77
2021/03/28 05:51:43;;;;;;;10.02;2.30;;;7.90;75.30;;;;;;5071700;28;20048;-77
2021/03/28 05:54:21;;;;;;;6.25;2.10;;;7.90;75.30;;;;;;5064862;28;20048;-77
2021/03/28 05:57:19;;;;;;;8.20;1.67;;;7.90;75.50;;;;;;5052898;28;20387;-77
2021/03/28 06:00:12;;;;;;;10.32;2.08;;;8.00;75.30;;;;;;5036435;28;20087;-77
2021/03/28 06:02:50;;;;;;;7.47;1.85;;;8.10;75.50;;;;;;5068110;28;20031;-77
2021/03/28 06:06:01;;;;;;;10.27;1.90;;;8.10;75.30;;;;;;5070682;28;20082;-77
2021/03/28 06:08:41;;;;;;;12.05;2.25;;;8.20;75.50;;;;;;5032016;28;20029;-77
2021/03/28 06:11:28;;;;;;;5.00;1.30;;;8.20;75.50;;;;;;5039542;28;20587;-77
2021/03/28 06:14:00;;;;;;;9.80;2.00;;;8.20;75.30;;;;;;5052931;28;20041;-77
2021/03/28 06:16:38;;;;;;;7.97;1.88;;;8.30;75.20;;;;;;5052708;28;20433;-77
2021/03/28 06:19:48;;;;;;;7.65;1.95;;;8.30;75.10;;;;;;5053038;28;20554;-77
2021/03/28 06:22:51;;;;;;;10.40;1.83;;;8.30;75.10;;;;;;5037224;28;20049;-77
2021/03/28 06:25:48;;;;;;;8.15;1.80;;;8.40;75.20;;;;;;5051211;28;20036;-77
2021/03/28 06:28:26;;;;;;;6.78;1.63;;;8.40;75.10;;;;;;5034365;28;20506;-77
2021/03/28 06:31:30;;;;;;;8.07;1.52;;;8.50;75.20;;;;;;5058668;28;20059;-77
2021/03/28 06:34:23;;;;;;;8.55;2.00;;;8.60;75.10;;;;;;5076219;28;20401;-77
2021/03/28 06:37:29;;;;;;;9.07;2.03;;;8.60;74.90;;;;;;5059006;28;20543;-77
2021/03/28 06:40:38;;;;;;;9.73;1.85;;;8.70;74.90;;;;;;5074047;28;20099;-77
2021/03/28 06:43:25;;;;;;;10.73;1.95;;;8.70;74.80;;;;;;5053465;28;20486;-77
2021/03/28 06:46:09;;;;;;;8.95;1.80;;;8.80;74.70;;;;;;5060755;28;20111;-77
2021/03/28 06:48:53;;;;;;;7.20;1.75;;;8.90;74.70;;;;;;5058646;28;20385;-77
2021/03/28 06:51:51;;;;;;;9.02;1.90;;;8.90;74.60;;;;;;5074749;28;20027;-76
2021/03/28 06:54:59;;;;;;;6.80;1.63;;;9.00;74.50;;;;;;5066923;28;20021;-77
2021/03/28 06:58:07;;;;;;;6.00;2.10;;;9.00;74.40;;;;;;5059536;28;20470;-77
2021/03/28 07:01:13;;;;;;;6.78;1.70;;;9.00;74.40;;;;;;5066747;28;20111;-77
2021/03/28 07:04:03;;;;;;;6.72;1.88;;;9.10;74.50;;;;;;5075785;28;20024;-77
2021/03/28 07:07:04;;;;;;;8.02;1.90;;;9.10;74.30;;;;;;5065392;28;20017;-77
2021/03/28 07:13:06;;;;;;;7.18;1.95;;;9.30;73.80;;;;;;5035645;28;20034;-77
2021/03/28 07:16:01;;;;;;;5.53;1.58;;;9.50;73.40;;;;;;5051519;28;20025;-77
2021/03/28 07:19:03;;;;;;;5.78;1.67;;;9.70;73.20;;;;;;5074295;28;20039;-77
2021/03/28 07:22:07;;;;;;;7.68;1.60;;;9.90;72.90;;;;;;5042993;28;20040;-77
2021/03/28 07:25:03;;;;;;;8.35;1.70;;;10.10;72.20;;;;;;5035475;28;20482;-77
2021/03/28 07:27:53;;;;;;;9.20;1.92;;;10.30;72.10;;;;;;5064492;28;20112;-77
2021/03/28 07:30:50;;;;;;;8.35;1.73;;;10.40;71.60;;;;;;5073887;28;20482;-77
2021/03/28 07:33:24;;;;;;;5.22;1.70;;;10.50;71.40;;;;;;5073625;28;20040;-77
2021/03/28 07:36:12;;;;;;;11.30;2.42;;;10.40;71.30;;;;;;5077228;28;20024;-77
2021/03/28 07:39:44;;;;;;;6.28;1.75;;;10.50;71.60;;;;;;5094809;28;20056;-78
2021/03/28 07:42:56;;;;;;;6.90;2.17;;;10.70;71.30;;;;;;4993741;28;20050;-77
2021/03/28 07:45:30;;;;;;;10.07;2.47;;;10.80;70.90;;;;;;4993493;28;20061;-77
2021/03/28 07:48:17;;;;;;;12.35;2.67;;;11.00;70.50;;;;;;5077189;28;20059;-77
2021/03/28 07:51:13;;;;;;;6.22;1.83;;;11.10;70.30;;;;;;5095043;28;20023;-77
2021/03/28 07:54:20;;;;;;;12.35;2.88;;;11.30;69.80;;;;;;5094616;28;20031;-75
2021/03/28 07:57:19;;;;;;;5.78;1.95;;;11.50;69.60;;;;;;5072179;28;20020;-75
2021/03/28 08:00:07;;;;;;;10.55;2.58;;;11.70;69.30;;;;;;5094133;28;20384;-75
2021/03/28 08:03:22;;;;;;;10.23;2.47;;;11.90;68.90;;;;;;5076271;28;20036;-75
2021/03/28 08:06:41;;;;;;;9.70;2.72;;;12.00;68.00;;;;;;5077055;28;20024;-75
2021/03/28 08:09:26;;;;;;;11.02;2.60;;;12.20;68.00;;;;;;5031560;28;20040;-75
2021/03/28 08:12:08;;;;;;;9.02;2.45;;;12.30;67.80;;;;;;5093434;28;20435;-75
2021/03/28 08:15:14;;;;;;;6.68;2.20;;;12.40;67.50;;;;;;5075469;28;20035;-75
2021/03/28 08:17:58;;;;;;;8.10;2.20;;;12.70;66.90;;;;;;5076324;28;20029;-75
2021/03/28 08:20:59;;;;;;;10.30;2.90;;;12.80;66.40;;;;;;5093919;28;20028;-75
2021/03/28 08:23:56;;;;;;;9.00;2.45;;;12.90;65.80;;;;;;5074763;28;20082;-75
2021/03/28 08:27:01;;;;;;;14.68;2.88;;;13.00;65.60;;;;;;5094094;28;20031;-75
2021/03/28 08:29:50;;;;;;;10.38;2.70;;;13.00;65.00;;;;;;5076540;28;20024;-75
2021/03/28 08:32:25;;;;;;;6.40;1.90;;;13.00;64.90;;;;;;5092930;28;20035;-75
2021/03/28 08:35:06;;;;;;;10.55;2.97;;;13.00;65.20;;;;;;5093399;28;20043;-75
2021/03/28 08:38:05;;;;;;;10.48;2.97;;;13.00;64.40;;;;;;5075710;28;20460;-75
2021/03/28 08:40:46;;;;;;;7.63;1.90;;;13.00;64.70;;;;;;5071327;28;20067;-75
2021/03/28 08:43:21;;;;;;;9.73;2.58;;;13.00;65.00;;;;;;5101453;28;20029;-76
2021/03/28 08:46:21;;;;;;;14.60;2.63;;;13.10;64.80;;;;;;5100408;28;20050;-76
2021/03/28 08:49:25;;;;;;;6.78;1.90;;;13.30;64.50;;;;;;5088925;28;20489;-76
2021/03/28 08:52:23;;;;;;;8.43;2.13;;;13.40;63.90;;;;;;5088216;28;20024;-76
2021/03/28 08:55:42;;;;;;;11.98;2.25;;;13.50;63.70;;;;;;5055010;28;20107;-76
2021/03/28 08:58:32;;;;;;;13.30;2.03;;;13.70;63.20;;;;;;5079791;28;20028;-77
2021/03/28 09:01:22;;;;;;;7.93;1.83;;;13.80;61.60;;;;;;5093926;28;20028;-77
2021/03/28 09:04:27;;;;;;;8.13;1.98;;;13.90;61.70;;;;;;5093884;28;20028;-77
2021/03/28 09:07:18;;;;;;;12.55;2.65;;;14.00;61.40;;;;;;5075406;28;20154;-77
2021/03/28 09:09:53;;;;;;;10.38;1.73;;;14.10;60.30;;;;;;5089149;28;20024;-77
2021/03/28 09:12:55;;;;;;;7.40;2.35;;;14.20;59.80;;;;;;5125796;27;20054;-77
2021/03/28 09:15:55;;;;;;;9.00;2.08;;;14.10;58.80;;;;;;5073591;28;20465;-77
2021/03/28 09:19:14;;;;;;;8.38;2.08;;;14.20;58.40;;;;;;5073595;28;20036;-77
2021/03/28 09:21:51;;;;;;;4.97;1.88;;;14.30;57.20;;;;;;5030641;28;20089;-78
2021/03/28 09:28:09;;;;;;;7.88;1.92;;;14.50;57.40;;;;;;5073526;28;20396;-77
2021/03/28 09:31:02;;;;;;;11.13;2.35;;;14.70;56.30;;;;;;5090979;28;20028;-77
2021/03/28 09:33:58;;;;;;;8.65;2.25;;;14.80;54.50;;;;;;5086387;28;20044;-77
2021/03/28 09:36:29;;;;;;;6.85;1.80;;;14.90;52.20;;;;;;5073346;28;20024;-77
2021/03/28 09:39:22;;;;;;;13.50;1.80;;;14.90;52.60;;;;;;5073206;28;20166;-77
2021/03/28 09:42:50;;;;;;;7.65;1.25;;;14.90;50.70;;;;;;5069962;28;20094;-77
2021/03/28 09:45:57;;;;;;;9.10;1.70;;;15.00;49.90;;;;;;4988468;28;20035;-78
2021/03/28 09:49:05;;;;;;;7.50;1.70;;;15.10;50.80;;;;;;4972297;28;20392;-77
2021/03/28 09:52:01;;;;;;;8.32;1.65;;;15.20;50.10;;;;;;5033067;28;20470;-77
2021/03/28 09:54:44;;;;;;;10.38;1.70;;;15.20;49.10;;;;;;5059142;28;20029;-77
2021/03/28 09:57:34;;;;;;;4.95;1.30;;;15.10;49.70;;;;;;5054726;28;20025;-77
2021/03/28 10:00:18;;;;;;;9.93;1.83;;;15.10;49.70;;;;;;5053280;28;20104;-77
2021/03/28 10:03:26;;;;;;;10.73;1.55;;;15.20;50.10;;;;;;5057076;28;20025;-75
2021/03/28 10:06:07;;;;;;;11.20;2.58;;;15.30;50.10;;;;;;5018573;28;20036;-77
2021/03/28 10:08:51;;;;;;;14.93;2.38;;;15.30;49.90;;;;;;5056701;28;20107;-77
2021/03/28 10:11:24;;;;;;;10.70;2.10;;;15.40;50.00;;;;;;5057010;28;20082;-77
2021/03/28 10:14:11;;;;;;;10.18;1.90;;;15.50;50.00;;;;;;5053407;28;20394;-78
2021/03/28 10:17:28;;;;;;;11.00;2.10;;;15.50;49.40;;;;;;5049565;28;20029;-78
2021/03/28 10:20:10;;;;;;;9.43;1.80;;;15.40;48.90;;;;;;5045305;28;20045;-78
2021/03/28 10:23:06;;;;;;;9.13;2.33;;;15.40;49.00;;;;;;5051498;28;20060;-79
2021/03/28 10:26:14;;;;;;;12.35;2.20;;;15.30;49.40;;;;;;5041123;28;20047;-78
2021/03/28 10:29:01;;;;;;;4.85;1.67;;;15.40;49.00;;;;;;5052517;28;20025;-79
2021/03/28 10:31:49;;;;;;;5.13;1.73;;;15.30;48.90;;;;;;5051209;28;20025;-79
2021/03/28 10:34:37;;;;;;;8.52;1.52;;;15.30;49.50;;;;;;5064565;28;20043;-79
2021/03/28 10:37:41;;;;;;;14.45;1.80;;;15.40;49.30;;;;;;5070881;28;20029;-79
2021/03/28 10:40:44;;;;;;;8.32;1.88;;;15.50;48.40;;;;;;5048117;28;20112;-79
2021/03/28 10:43:40;;;;;;;5.85;1.70;;;15.60;48.10;;;;;;5042311;28;20115;-78
2021/03/28 10:46:09;;;;;;;6.63;1.65;;;15.70;47.70;;;;;;5069546;28;20032;-79
2021/03/28 10:49:12;;;;;;;4.88;1.33;;;15.90;46.60;;;;;;5070657;28;20036;-78
2021/03/28 10:51:56;;;;;;;8.32;1.63;;;16.10;45.80;;;;;;5087894;28;20033;-79
2021/03/28 10:55:08;;;;;;;6.05;1.75;;;16.20;45.80;;;;;;5091841;28;20350;-78
2021/03/28 10:58:09;;;;;;;5.28;1.33;;;16.40;44.20;;;;;;5090655;28;20024;-79
2021/03/28 11:01:14;;;;;;;6.22;1.42;;;16.40;43.30;;;;;;5094730;28;20051;-79
2021/03/28 11:04:25;;;;;;;5.65;1.27;;;16.40;41.60;;;;;;5072314;28;20024;-79
2021/03/28 11:07:13;;;;;;;9.35;1.60;;;16.40;42.60;;;;;;5063145;28;20039;-79
2021/03/28 11:10:02;;;;;;;4.97;1.23;;;16.40;42.80;;;;;;5074595;28;20035;-79
2021/03/28 11:12:56;;;;;;;7.10;1.40;;;16.40;41.80;;;;;;5067967;28;20025;-80
2021/03/28 11:15:40;;;;;;;9.80;1.70;;;16.40;41.20;;;;;;5092957;28;20115;-80
2021/03/28 11:18:43;;;;;;;9.23;1.50;;;16.40;41.50;;;;;;5069940;28;20052;-80
2021/03/28 11:21:46;;;;;;;7.55;2.00;;;16.50;42.60;;;;;;5073647;28;20120;-80
2021/03/28 11:24:35;;;;;;;7.85;1.48;;;16.80;42.00;;;;;;5070948;28;20027;-80
2021/03/28 11:27:22;;;;;;;6.40;1.70;;;17.10;42.10;;;;;;5071883;28;20570;-80
2021/03/28 11:30:13;;;;;;;8.77;1.50;;;17.30;41.70;;;;;;5055047;28;20025;-80
2021/03/28 11:32:57;;;;;;;6.28;1.55;;;17.30;41.20;;;;;;5072865;28;20021;-81
2021/03/28 11:35:30;;;;;;;4.43;1.20;;;17.30;41.00;;;;;;5083049;28;20108;-81
2021/03/28 11:38:24;;;;;;;4.57;1.48;;;17.30;41.40;;;;;;5094925;28;20130;-81
2021/03/28 11:41:16;;;;;;;4.82;1.42;;;17.40;41.70;;;;;;5073207;28;20032;-81
2021/03/28 11:43:58;;;;;;;5.63;1.73;;;17.40;41.40;;;;;;5077852;28;20036;-81
2021/03/28 11:46:47;;;;;;;5.28;1.50;;;17.30;42.00;;;;;;5071609;28;20123;-82
2021/03/28 11:49:18;;;;;;;7.57;1.60;;;17.40;41.80;;;;;;5071629;28;20032;-81
2021/03/28 11:52:16;;;;;;;3.60;1.20;;;17.40;41.80;;;;;;5110821;28;20054;-81
2021/03/28 11:55:04;;;;;;;5.57;1.37;;;17.40;41.70;;;;;;5094922;28;20024;-81
2021/03/28 11:57:36;;;;;;;8.80;1.47;;;17.40;41.50;;;;;;5110946;28;20308;-81
2021/03/28 12:00:39;;;;;;;7.50;1.23;;;17.30;40.70;;;;;;5084361;28;20033;-80
2021/03/28 12:03:25;;;;;;;5.22;1.30;;;17.10;41.20;;;;;;5084674;28;20024;-81
2021/03/28 12:05:53;;;;;;;6.95;1.58;;;17.10;41.90;;;;;;5083413;28;20101;-81
2021/03/28 12:08:21;;;;;;;7.13;2.08;;;17.20;41.40;;;;;;5074883;28;20075;-81
2021/03/28 12:10:56;;;;;;;4.72;1.50;;;17.20;41.30;;;;;;5060860;28;20085;-81
2021/03/28 12:13:44;;;;;;;4.82;1.15;;;17.40;40.30;;;;;;5076293;28;20028;-81
2021/03/28 12:16:11;;;;;;;10.52;1.27;;;17.40;39.30;;;;;;5100978;28;20040;-81
2021/03/28 12:18:51;;;;;;;8.40;1.40;;;17.40;40.20;;;;;;5069077;28;20059;-81
2021/03/28 12:21:32;;;;;;;4.65;0.90;;;17.40;40.30;;;;;;5110367;28;20384;-81
2021/03/28 12:24:05;;;;;;;3.92;1.13;;;17.40;40.50;;;;;;5094061;28;20115;-81
2021/03/28 12:26:45;;;;;;;9.02;1.30;;;17.30;39.80;;;;;;5082817;28;20035;-81
2021/03/28 12:29:31;;;;;;;3.55;1.35;;;17.10;39.70;;;;;;5077173;28;20160;-81
2021/03/28 12:32:17;;;;;;;9.88;1.55;;;17.00;40.70;;;;;;5099308;28;20020;-81
2021/03/28 12:34:48;;;;;;;6.13;1.23;;;16.90;39.90;;;;;;5075561;28;20107;-81
2021/03/28 12:37:25;;;;;;;4.57;1.38;;;16.70;40.60;;;;;;5044846;28;20097;-81
2021/03/28 12:40:21;;;;;;;5.63;1.52;;;16.70;40.80;;;;;;5048697;28;20037;-81
2021/03/28 12:42:53;;;;;;;7.40;1.85;;;16.60;41.10;;;;;;5053958;28;20108;-81
2021/03/28 12:45:19;;;;;;;6.15;2.00;;;16.50;41.00;;;;;;5048389;28;20032;-81
2021/03/28 12:48:18;;;;;;;3.85;1.05;;;16.40;41.00;;;;;;5053872;28;20028;-81
2021/03/28 12:50:46;;;;;;;6.07;1.27;;;16.40;40.90;;;;;;5061128;28;20029;-81
2021/03/28 12:53:21;;;;;;;3.95;1.42;;;16.30;41.70;;;;;;5032680;28;20108;-81
2021/03/28 12:55:55;;;;;;;6.93;1.42;;;16.40;41.80;;;;;;5038488;28;20030;-81
2021/03/28 12:58:43;;;;;;;5.40;1.20;;;16.40;41.50;;;;;;5033534;28;20018;-81
2021/03/28 13:01:40;;;;;;;5.75;1.33;;;16.50;42.00;;;;;;5045830;28;20026;-81
2021/03/28 13:04:26;;;;;;;6.13;1.23;;;16.50;41.70;;;;;;5033137;28;20028;-80
2021/03/28 13:06:58;;;;;;;7.32;1.48;;;16.70;41.70;;;;;;5037142;28;20107;-80
2021/03/28 13:09:53;;;;;;;4.13;1.15;;;16.80;41.20;;;;;;5048188;28;20037;-81
2021/03/28 13:12:23;;;;;;;6.20;1.58;;;16.80;41.40;;;;;;5047702;28;20041;-81
2021/03/28 13:15:09;;;;;;;4.80;1.20;;;16.80;41.00;;;;;;5053601;28;20017;-81
2021/03/28 13:17:39;;;;;;;5.15;1.08;;;16.80;41.60;;;;;;5048765;28;20032;-81
2021/03/28 13:20:28;;;;;;;4.32;1.30;;;16.80;41.90;;;;;;5033543;28;20021;-81
2021/03/28 13:23:04;;;;;;;;;;;16.90;42.20;;;;;;5049304;28;20022;-81
2021/03/28 13:25:33;;;;;;;4.63;1.17;;;16.90;42.20;;;;;;5033481;28;19928;-81
2021/03/28 13:28:25;;;;;;;6.60;1.75;;;16.80;42.30;;;;;;5033366;28;20021;-81
2021/03/28 13:31:11;;;;;;;3.30;0.88;;;16.80;41.90;;;;;;5031312;28;20040;-81
2021/03/28 13:33:40;;;;;;;4.65;1.38;;;16.80;42.00;;;;;;5045114;28;20064;-81
2021/03/28 13:36:17;;;;;;;;;;;16.90;42.40;;;;;;5067420;28;20162;-81
2021/03/28 13:38:58;;;;;;;4.87;1.27;;;16.80;42.50;;;;;;5069989;28;19908;-81
2021/03/28 13:41:30;;;;;;;6.00;1.25;;;16.90;42.80;;;;;;5052795;28;20040;-81
2021/03/28 13:44:07;;;;;;;7.68;1.48;;;16.90;43.10;;;;;;5053262;28;20059;-81
2021/03/28 13:46:56;;;;;;;7.35;1.63;;;16.90;42.60;;;;;;5053016;28;20029;-81
2021/03/28 13:49:24;;;;;;;;;;;16.80;42.70;;;;;;5056715;28;20025;-81
2021/03/28 13:52:14;;;;;;;6.22;1.23;;;16.70;42.30;;;;;;5071556;28;19999;-81
2021/03/28 13:54:45;;;;;;;7.32;1.50;;;16.60;42.90;;;;;;5081848;28;20492;-81
2021/03/28 13:57:23;;;;;;;7.57;1.30;;;16.60;42.80;;;;;;5093177;28;20028;-81
2021/03/28 14:00:21;;;;;;;5.80;1.50;;;16.60;42.90;;;;;;5081621;28;20052;-81
2021/03/28 14:02:50;;;;;;;4.78;1.20;;;16.50;43.30;;;;;;5059825;28;20043;-81
2021/03/28 14:05:20;;;;;;;7.88;1.40;;;16.40;43.40;;;;;;5066236;28;20482;-81
2021/03/28 14:07:58;;;;;;;6.07;1.50;;;16.40;44.10;;;;;;5072617;28;20091;-82
2021/03/28 14:10:32;;;;;;;6.50;1.48;;;16.30;43.90;;;;;;5054936;28;20035;-81
2021/03/28 14:13:25;;;;;;;6.40;1.35;;;16.30;44.40;;;;;;5072012;28;20039;-82
2021/03/28 14:16:14;;;;;;;6.40;1.65;;;16.30;44.20;;;;;;5067923;28;20021;-81
2021/03/28 14:18:43;;;;;;;8.48;1.45;;;16.20;44.10;;;;;;5068577;28;20024;-81
2021/03/28 14:21:41;;;;;;;4.40;1.08;;;16.20;44.70;;;;;;5072828;28;20119;-80
2021/03/28 14:24:26;;;;;;;5.03;1.20;;;16.10;44.90;;;;;;5069550;28;20032;-81
2021/03/28 14:27:22;;;;;;;6.45;1.60;;;16.00;45.50;;;;;;5072705;28;20027;-81
2021/03/28 14:30:24;;;;;;;4.72;1.30;;;16.00;45.60;;;;;;5060199;28;20071;-81
2021/03/28 14:33:09;;;;;;;4.57;1.30;;;16.10;45.70;;;;;;5061141;28;20079;-81
2021/03/28 14:36:06;;;;;;;10.85;1.90;;;16.10;46.10;;;;;;5063475;28;20109;-81
2021/03/28 14:38:51;;;;;;;5.47;1.45;;;16.10;45.90;;;;;;5060468;28;20112;-81
2021/03/28 14:41:40;;;;;;;6.18;1.60;;;16.30;46.10;;;;;;5068714;28;20032;-82
2021/03/28 14:44:15;;;;;;;;;;;16.40;46.10;;;;;;5057991;28;20763;-80
2021/03/28 14:47:03;;;;;;;7.78;2.05;;;16.40;45.80;;;;;;5065070;28;19909;-81
2021/03/28 14:50:02;;;;;;;6.53;1.48;;;16.40;45.80;;;;;;5071399;28;20040;-80
2021/03/28 14:53:02;;;;;;;5.40;1.30;;;16.50;45.80;;;;;;5060015;28;20024;-80
2021/03/28 14:55:44;;;;;;;4.90;1.30;;;16.50;45.40;;;;;;5067879;28;20116;-81
2021/03/28 14:58:41;;;;;;;6.55;1.60;;;16.50;45.90;;;;;;5072772;28;20021;-81